Main page
METAR-TAF:

METAR-TAF

Airports :

Vinton Veterans Memorial Airpark

Vinton, Iowa, United States

latitude: 42-13-07N, longitude: 092-01-33W, elevation: 846 ft

Current weather observation

The report was made 21 minutes ago, at 20:35 UTC
Wind 15 mph from the Southeast
Temperature 55°F
Humidity 58%
Pressure 29.99 in. Hg
Visibility: 10 miles
Clear sky

METAR: KVTI 012035Z AUTO 14013KT 10SM CLR 13/05 A2999 RMK AO2 T01320052

Time: 15:56 (20:56 UTC)


TAF: missing

Weather observations and forecasts of more than 4000 airports (METAR and TAF reports).

The available stations are represented by yellow and red dots on the map.

Hover mouse over dot to see the name of the station.

Then click to see weather observations and forecasts.

To change the map : click on the green buttons with a black cross to zoom in, on the green button with a dash to zoom out, or on the green arrows for adjacent maps.


METAR-TAF: